Time;durP1;ratioP1;P1;durP2;ratioP2;P2;SDS_P1;SDS_P2;PMS_P1;PMS_P2;Temp;Humidity;BMP_temperature;BMP_pressure;BME280_temperature;BME280_humidity;BME280_pressure;Samples;Min_cycle;Max_cycle;Signal;HPM_P1;HPM_P2
2024/01/04 00:01:12;;;;;;;1.50;0.60;;;10.40;99.90;;;;;;5073986;28;20168;-78
2024/01/04 00:03:38;;;;;;;2.83;0.80;;;10.40;99.90;;;;;;5065482;28;20227;-78
2024/01/04 00:06:04;;;;;;;2.60;0.60;;;10.40;99.90;;;;;;5055941;28;20179;-77
2024/01/04 00:08:29;;;;;;;1.90;0.60;;;10.40;99.90;;;;;;5072973;28;20183;-77
2024/01/04 00:10:55;;;;;;;1.87;0.80;;;10.40;99.90;;;;;;5038376;28;20894;-77
2024/01/04 00:13:21;;;;;;;1.80;0.70;;;10.50;99.90;;;;;;5072643;28;20199;-76
2024/01/04 00:15:46;;;;;;;2.00;0.70;;;10.50;99.90;;;;;;5054626;28;20199;-77
2024/01/04 00:18:12;;;;;;;3.17;0.60;;;10.50;99.90;;;;;;5037816;28;20176;-77
2024/01/04 00:20:38;;;;;;;1.60;0.50;;;10.50;99.90;;;;;;5054377;28;20180;-76
2024/01/04 00:23:04;;;;;;;2.10;0.90;;;10.50;99.90;;;;;;5037679;28;20200;-76
2024/01/04 00:25:29;;;;;;;5.18;0.82;;;10.50;99.90;;;;;;5054450;28;20180;-77
2024/01/04 00:27:55;;;;;;;4.83;1.00;;;10.60;99.90;;;;;;5071883;28;20206;-77
2024/01/04 00:30:21;;;;;;;2.90;0.80;;;10.60;99.90;;;;;;5071924;28;20705;-76
2024/01/04 00:32:47;;;;;;;4.13;0.70;;;10.60;99.90;;;;;;5054377;28;20177;-76
2024/01/04 00:35:12;;;;;;;2.70;0.80;;;10.70;99.90;;;;;;5072073;28;20192;-76
2024/01/04 00:37:38;;;;;;;5.07;1.00;;;10.70;99.90;;;;;;5071492;28;20538;-76
2024/01/04 00:40:05;;;;;;;2.03;0.90;;;10.70;99.90;;;;;;5071747;28;20600;-76
2024/01/04 00:42:30;;;;;;;2.67;1.15;;;10.70;99.90;;;;;;5037492;28;20582;-76
2024/01/04 00:44:56;;;;;;;2.27;1.17;;;10.80;99.90;;;;;;5071993;28;20192;-77
2024/01/04 00:47:22;;;;;;;4.60;1.13;;;10.80;99.90;;;;;;5017876;28;20184;-77
2024/01/04 00:49:48;;;;;;;2.40;1.10;;;10.80;99.90;;;;;;5053330;28;20173;-76
2024/01/04 00:52:14;;;;;;;3.88;0.82;;;10.90;99.90;;;;;;5078551;23;20275;-74
2024/01/04 00:54:40;;;;;;;3.80;1.00;;;10.90;99.90;;;;;;5006903;28;20626;-74
2024/01/04 00:57:06;;;;;;;7.93;1.70;;;10.90;99.90;;;;;;5016431;28;20567;-74
2024/01/04 00:59:32;;;;;;;1.60;0.90;;;10.90;99.90;;;;;;5043187;28;20580;-74
2024/01/04 01:01:57;;;;;;;6.03;1.40;;;10.90;99.90;;;;;;5011617;28;20195;-75
2024/01/04 01:04:23;;;;;;;2.37;0.80;;;11.00;99.90;;;;;;5027888;28;20265;-75
2024/01/04 01:06:49;;;;;;;4.60;0.87;;;10.90;99.90;;;;;;5036476;28;20942;-75
2024/01/04 01:09:15;;;;;;;2.23;0.90;;;10.90;99.90;;;;;;5045247;28;20172;-75
2024/01/04 01:11:40;;;;;;;3.33;0.77;;;10.90;99.90;;;;;;5056167;28;20192;-75
2024/01/04 01:14:06;;;;;;;3.40;0.97;;;10.90;99.90;;;;;;5071386;28;20202;-75
2024/01/04 01:16:32;;;;;;;1.73;0.70;;;10.90;99.90;;;;;;5052693;28;20207;-75
2024/01/04 01:18:57;;;;;;;2.30;0.80;;;10.90;99.90;;;;;;5053129;28;20172;-75
2024/01/04 01:21:23;;;;;;;3.53;0.70;;;10.90;99.90;;;;;;5028091;28;20172;-74
2024/01/04 01:23:49;;;;;;;2.90;0.80;;;10.90;99.90;;;;;;5068311;28;20549;-75
2024/01/04 01:26:14;;;;;;;3.40;1.00;;;10.90;99.90;;;;;;5032311;28;20172;-74
2024/01/04 01:28:40;;;;;;;1.97;0.80;;;10.90;99.90;;;;;;5036097;28;20184;-77
2024/01/04 01:31:06;;;;;;;3.30;1.00;;;10.90;99.90;;;;;;5029947;28;20277;-74
2024/01/04 01:33:32;;;;;;;3.20;0.90;;;10.90;99.90;;;;;;5034570;28;20361;-74
2024/01/04 01:35:58;;;;;;;2.77;0.90;;;10.90;99.90;;;;;;5053145;28;20857;-74
2024/01/04 01:38:24;;;;;;;5.23;1.43;;;10.90;99.90;;;;;;5035991;28;20721;-77
2024/01/04 01:40:50;;;;;;;2.43;0.80;;;10.90;99.90;;;;;;5035999;28;20587;-74
2024/01/04 01:43:16;;;;;;;3.92;1.30;;;11.00;99.90;;;;;;5052762;28;20196;-76
2024/01/04 01:45:41;;;;;;;2.47;0.90;;;11.00;99.90;;;;;;5044824;28;20190;-75
2024/01/04 01:48:07;;;;;;;3.50;0.93;;;11.00;99.90;;;;;;5039792;28;20208;-75
2024/01/04 01:50:34;;;;;;;2.83;0.88;;;11.00;99.90;;;;;;5052484;28;20176;-74
2024/01/04 01:53:00;;;;;;;2.67;0.80;;;11.00;99.90;;;;;;5019485;28;20203;-75
2024/01/04 01:55:26;;;;;;;3.17;0.95;;;11.00;99.90;;;;;;5019851;28;20659;-74
2024/01/04 01:57:53;;;;;;;1.88;0.80;;;11.00;99.90;;;;;;5052767;28;20172;-74
2024/01/04 02:00:20;;;;;;;1.80;0.70;;;11.00;99.90;;;;;;5029722;28;20168;-74
2024/01/04 02:02:48;;;;;;;2.55;0.93;;;11.00;99.90;;;;;;5035603;28;20188;-74
2024/01/04 02:05:14;;;;;;;2.13;0.70;;;11.00;99.90;;;;;;5036655;28;20186;-74
2024/01/04 02:07:40;;;;;;;1.73;0.88;;;11.00;99.90;;;;;;5042192;28;20183;-75
2024/01/04 02:10:07;;;;;;;3.40;1.00;;;11.10;99.90;;;;;;5027660;28;20184;-75
2024/01/04 02:12:32;;;;;;;3.92;0.80;;;11.10;99.90;;;;;;5052401;28;20985;-74
2024/01/04 02:14:58;;;;;;;3.17;1.00;;;11.10;99.90;;;;;;5036174;28;20172;-74
2024/01/04 02:17:25;;;;;;;2.10;1.00;;;11.10;99.90;;;;;;5034904;28;21015;-75
2024/01/04 02:19:51;;;;;;;4.45;0.88;;;11.10;99.90;;;;;;5027107;28;20176;-76
2024/01/04 02:22:17;;;;;;;2.60;0.90;;;11.10;99.90;;;;;;5043385;28;20214;-76
2024/01/04 02:24:44;;;;;;;4.47;1.63;;;11.10;99.90;;;;;;5036419;28;20168;-75
2024/01/04 02:27:11;;;;;;;3.42;1.35;;;11.10;99.90;;;;;;5046379;28;20677;-75
2024/01/04 02:29:36;;;;;;;3.22;1.52;;;11.20;99.90;;;;;;5051989;28;20333;-76
2024/01/04 02:32:02;;;;;;;2.53;1.30;;;11.10;99.90;;;;;;5051552;28;20291;-76
2024/01/04 02:34:29;;;;;;;1.83;0.90;;;11.10;99.90;;;;;;5052127;28;20542;-75
2024/01/04 02:36:55;;;;;;;3.80;1.00;;;11.20;99.90;;;;;;5051889;28;20242;-76
2024/01/04 02:39:21;;;;;;;2.37;1.00;;;11.20;99.90;;;;;;5052064;28;20192;-75
2024/01/04 02:41:47;;;;;;;3.83;1.20;;;11.20;99.90;;;;;;5066507;28;20622;-76
2024/01/04 02:44:13;;;;;;;3.23;1.57;;;11.20;99.90;;;;;;5065328;28;21123;-75
2024/01/04 02:46:39;;;;;;;3.53;1.10;;;11.20;99.90;;;;;;5051433;28;20180;-77
2024/01/04 02:49:04;;;;;;;3.40;1.10;;;11.20;99.90;;;;;;5069783;28;20629;-76
2024/01/04 02:51:30;;;;;;;5.17;1.17;;;11.20;99.90;;;;;;5034371;28;20594;-76
2024/01/04 02:53:57;;;;;;;2.42;0.90;;;11.20;99.90;;;;;;5004151;28;20185;-76
2024/01/04 02:56:23;;;;;;;2.70;0.90;;;11.20;99.90;;;;;;5014763;28;20700;-75
2024/01/04 02:58:48;;;;;;;4.47;0.83;;;11.20;99.90;;;;;;5032760;28;20279;-75
2024/01/04 03:01:21;;;;;;;3.03;1.10;;;11.20;99.90;;;;;;5051796;28;20955;-76
2024/01/04 03:03:51;;;;;;;2.78;1.00;;;11.20;99.90;;;;;;5046368;28;20208;-75
2024/01/04 03:06:30;;;;;;;2.90;0.90;;;11.20;99.90;;;;;;5051351;28;20177;-76
2024/01/04 03:08:56;;;;;;;1.63;0.82;;;11.30;99.90;;;;;;5044375;28;20183;-75
2024/01/04 03:11:22;;;;;;;3.70;1.43;;;11.20;99.90;;;;;;5051701;28;20180;-75
2024/01/04 03:13:47;;;;;;;4.27;1.30;;;11.30;99.90;;;;;;5036536;28;20613;-75
2024/01/04 03:16:14;;;;;;;3.07;1.10;;;11.20;99.90;;;;;;5046445;28;20303;-76
2024/01/04 03:18:40;;;;;;;3.95;1.10;;;11.20;99.90;;;;;;5073116;28;20187;-75
2024/01/04 03:21:06;;;;;;;3.53;1.00;;;11.20;99.90;;;;;;5038738;28;20180;-75
2024/01/04 03:23:31;;;;;;;3.40;1.00;;;11.20;99.90;;;;;;5037951;28;20196;-75
2024/01/04 03:25:58;;;;;;;1.80;0.90;;;11.20;99.90;;;;;;5050805;28;20181;-75
2024/01/04 03:28:23;;;;;;;2.28;0.98;;;11.30;99.90;;;;;;5018230;28;20184;-75
2024/01/04 03:30:49;;;;;;;2.30;1.00;;;11.20;99.90;;;;;;5054723;28;20226;-75
2024/01/04 03:33:15;;;;;;;2.53;1.00;;;11.30;99.90;;;;;;5054733;28;20239;-76
2024/01/04 03:35:40;;;;;;;1.87;0.80;;;11.20;99.90;;;;;;5073035;28;20203;-75
2024/01/04 03:38:06;;;;;;;5.50;1.70;;;11.20;99.90;;;;;;5072824;28;20180;-75
2024/01/04 03:40:32;;;;;;;3.47;1.23;;;11.20;99.90;;;;;;5058027;28;20264;-76
2024/01/04 03:42:57;;;;;;;3.10;1.23;;;11.20;99.90;;;;;;5054734;28;20213;-76
2024/01/04 03:45:23;;;;;;;3.50;1.17;;;11.20;99.90;;;;;;5037952;28;20212;-76
2024/01/04 03:47:49;;;;;;;2.20;1.20;;;11.20;99.90;;;;;;5072362;28;20200;-76
2024/01/04 03:50:15;;;;;;;2.37;1.10;;;11.20;99.90;;;;;;5072668;28;20614;-76
2024/01/04 03:52:40;;;;;;;5.57;1.80;;;11.20;99.90;;;;;;5054489;28;20230;-76
2024/01/04 03:55:06;;;;;;;2.00;1.00;;;11.20;99.90;;;;;;5072296;28;20198;-75
2024/01/04 03:57:32;;;;;;;3.85;1.15;;;11.20;99.90;;;;;;5054099;28;20172;-75
2024/01/04 03:59:58;;;;;;;2.60;1.27;;;11.20;99.90;;;;;;5072378;28;20180;-76
2024/01/04 04:02:23;;;;;;;1.70;0.90;;;11.10;99.90;;;;;;5046894;28;20207;-76
2024/01/04 04:04:49;;;;;;;3.53;1.10;;;11.10;99.90;;;;;;5071935;28;20218;-76
2024/01/04 04:07:15;;;;;;;3.27;1.37;;;11.10;99.90;;;;;;5072055;28;20172;-76
2024/01/04 04:09:41;;;;;;;2.57;1.17;;;11.10;99.90;;;;;;5072240;28;20586;-76
2024/01/04 04:12:07;;;;;;;2.83;1.30;;;11.10;99.90;;;;;;5037854;28;20196;-76
2024/01/04 04:14:34;;;;;;;3.77;1.17;;;11.10;99.90;;;;;;5063423;28;20184;-76
2024/01/04 04:17:03;;;;;;;3.75;1.10;;;11.10;99.90;;;;;;5056645;28;20214;-76
2024/01/04 04:19:28;;;;;;;1.85;1.30;;;11.00;99.90;;;;;;5021454;28;20724;-76
2024/01/04 04:21:54;;;;;;;4.67;1.20;;;11.10;99.90;;;;;;5032387;28;20280;-76
2024/01/04 04:24:20;;;;;;;1.80;0.80;;;11.10;99.90;;;;;;5013649;28;20592;-76
2024/01/04 04:26:45;;;;;;;4.10;1.00;;;11.10;99.90;;;;;;5013693;28;20184;-76
2024/01/04 04:29:11;;;;;;;1.63;0.80;;;11.10;99.90;;;;;;5031807;28;20209;-76
2024/01/04 04:31:37;;;;;;;4.73;1.30;;;11.10;99.90;;;;;;5032396;28;20177;-76
2024/01/04 04:34:05;;;;;;;3.88;0.90;;;11.10;99.90;;;;;;5045194;28;20212;-76
2024/01/04 04:36:31;;;;;;;4.23;1.20;;;11.10;99.90;;;;;;5051357;28;20236;-75
2024/01/04 04:39:00;;;;;;;4.70;1.20;;;11.10;99.90;;;;;;5033833;28;20634;-76
2024/01/04 04:41:26;;;;;;;3.90;1.40;;;11.10;99.90;;;;;;5033916;28;20576;-75
2024/01/04 04:43:52;;;;;;;3.30;0.90;;;11.10;99.90;;;;;;5051150;28;20184;-75
2024/01/04 04:46:18;;;;;;;3.13;1.20;;;11.20;99.90;;;;;;5033518;28;20196;-75
2024/01/04 04:48:44;;;;;;;3.75;1.55;;;11.20;99.90;;;;;;5033768;28;20212;-76
2024/01/04 04:51:10;;;;;;;2.20;1.30;;;11.20;99.90;;;;;;5051456;28;20193;-76
2024/01/04 04:53:39;;;;;;;4.63;2.13;;;11.20;99.90;;;;;;5033737;28;20220;-76
2024/01/04 04:56:05;;;;;;;2.75;1.48;;;11.30;99.90;;;;;;5054037;28;20247;-76
2024/01/04 04:58:31;;;;;;;5.10;1.87;;;11.30;99.90;;;;;;5032302;28;20196;-76
2024/01/04 05:00:56;;;;;;;3.20;1.70;;;11.30;99.90;;;;;;5026620;28;20574;-75
2024/01/04 05:03:32;;;;;;;5.23;1.67;;;11.30;99.90;;;;;;5051357;28;20625;-78
2024/01/04 05:05:58;;;;;;;3.33;1.50;;;11.40;99.90;;;;;;5023340;28;20239;-75
2024/01/04 05:08:23;;;;;;;4.97;1.90;;;11.40;99.90;;;;;;5033474;28;20178;-76
2024/01/04 05:10:49;;;;;;;3.77;1.47;;;11.40;99.90;;;;;;5035840;28;20272;-76
2024/01/04 05:13:15;;;;;;;2.83;1.03;;;11.40;99.90;;;;;;5013275;28;20200;-76
2024/01/04 05:15:42;;;;;;;3.80;1.10;;;11.40;99.90;;;;;;5030965;28;20544;-76
2024/01/04 05:18:09;;;;;;;2.30;1.15;;;11.40;99.90;;;;;;5050687;28;20227;-76
2024/01/04 05:20:35;;;;;;;2.55;0.90;;;11.40;99.90;;;;;;5016524;28;20212;-76
2024/01/04 05:23:01;;;;;;;3.60;0.90;;;11.40;99.90;;;;;;5016673;28;20561;-76
2024/01/04 05:25:26;;;;;;;7.40;1.77;;;11.50;99.90;;;;;;5037411;28;20177;-76
2024/01/04 05:27:52;;;;;;;3.80;0.80;;;11.50;99.90;;;;;;5049798;28;20647;-76
2024/01/04 05:30:18;;;;;;;4.17;0.70;;;11.50;99.90;;;;;;5032941;28;20176;-76
2024/01/04 05:32:44;;;;;;;2.77;0.80;;;11.40;99.90;;;;;;5045931;28;20198;-76
2024/01/04 05:35:11;;;;;;;2.90;0.70;;;11.40;99.90;;;;;;5062295;28;20230;-76
2024/01/04 05:37:38;;;;;;;2.75;0.70;;;11.40;99.90;;;;;;5069711;28;20204;-76
2024/01/04 05:40:04;;;;;;;5.28;0.90;;;11.40;99.90;;;;;;5052712;28;20538;-76
2024/01/04 05:42:30;;;;;;;2.28;0.82;;;11.30;99.90;;;;;;5052301;28;20215;-76
2024/01/04 05:44:55;;;;;;;3.83;1.00;;;11.30;99.90;;;;;;5032217;28;20209;-76
2024/01/04 05:47:21;;;;;;;6.77;1.33;;;11.30;99.90;;;;;;5047089;28;20207;-75
2024/01/04 05:49:47;;;;;;;2.30;0.80;;;11.30;99.90;;;;;;5052320;28;20694;-75
2024/01/04 05:52:12;;;;;;;2.10;0.80;;;11.20;99.90;;;;;;5070398;28;20212;-75
2024/01/04 05:54:38;;;;;;;2.37;0.80;;;11.20;99.90;;;;;;5070347;28;20184;-75
2024/01/04 05:57:05;;;;;;;1.83;0.80;;;11.20;99.90;;;;;;5034645;28;20632;-75
2024/01/04 05:59:31;;;;;;;2.33;0.90;;;11.20;99.90;;;;;;5028463;28;20587;-75
2024/01/04 06:01:56;;;;;;;2.27;0.80;;;11.20;99.90;;;;;;5028216;28;20198;-75
2024/01/04 06:04:22;;;;;;;2.20;0.80;;;11.20;99.90;;;;;;5059267;28;20680;-75
2024/01/04 06:06:48;;;;;;;2.17;0.77;;;11.10;99.90;;;;;;5067008;28;20610;-76
2024/01/04 06:09:14;;;;;;;2.10;0.83;;;11.10;99.90;;;;;;5074584;28;20210;-75
2024/01/04 06:11:39;;;;;;;2.00;0.80;;;11.00;99.90;;;;;;5035670;28;20554;-75
2024/01/04 06:14:06;;;;;;;2.60;0.90;;;11.00;99.90;;;;;;5044517;28;20642;-75
2024/01/04 06:16:32;;;;;;;2.03;0.93;;;10.90;99.90;;;;;;5064010;28;20236;-75
2024/01/04 06:18:58;;;;;;;2.72;0.90;;;10.90;99.90;;;;;;5072831;28;20225;-75
2024/01/04 06:21:24;;;;;;;4.23;1.13;;;10.90;99.90;;;;;;5053825;28;20176;-75
2024/01/04 06:23:51;;;;;;;1.40;0.90;;;10.80;99.90;;;;;;5062451;28;20948;-75
2024/01/04 06:26:18;;;;;;;3.20;1.40;;;10.80;99.90;;;;;;5051515;28;20183;-75
2024/01/04 06:28:46;;;;;;;2.22;1.23;;;10.80;99.90;;;;;;5069641;28;20176;-75
2024/01/04 06:31:13;;;;;;;3.10;1.80;;;10.70;99.90;;;;;;5027607;28;20208;-75
2024/01/04 06:33:39;;;;;;;3.13;1.10;;;10.80;99.90;;;;;;5029732;28;20610;-75
2024/01/04 06:36:08;;;;;;;1.93;0.80;;;10.80;99.90;;;;;;5070066;28;20987;-75
2024/01/04 06:38:37;;;;;;;1.95;1.02;;;10.70;99.90;;;;;;5043438;28;20212;-75
2024/01/04 06:41:03;;;;;;;2.05;1.00;;;10.80;99.90;;;;;;5036077;28;20164;-75
2024/01/04 06:43:32;;;;;;;3.13;0.90;;;10.70;99.90;;;;;;5052157;28;20196;-77
2024/01/04 06:45:58;;;;;;;1.50;0.80;;;10.70;99.90;;;;;;5065449;28;20184;-77
2024/01/04 06:48:24;;;;;;;2.57;0.90;;;10.70;99.90;;;;;;5036894;28;20185;-78
2024/01/04 06:50:50;;;;;;;2.17;0.80;;;10.70;99.90;;;;;;5056461;28;20651;-75
2024/01/04 06:53:16;;;;;;;2.40;0.90;;;10.60;99.90;;;;;;5055081;28;20212;-77
2024/01/04 06:55:43;;;;;;;2.30;1.00;;;10.60;99.90;;;;;;5061836;28;20646;-77
2024/01/04 06:58:09;;;;;;;1.90;0.60;;;10.60;99.90;;;;;;5064275;28;20184;-77
2024/01/04 07:00:36;;;;;;;1.50;0.60;;;10.60;99.90;;;;;;5035311;28;20168;-76
2024/01/04 07:03:02;;;;;;;1.95;0.73;;;10.50;99.90;;;;;;5029998;28;20683;-77
2024/01/04 07:05:28;;;;;;;1.50;0.70;;;10.50;99.90;;;;;;5040056;28;20178;-77
2024/01/04 07:07:54;;;;;;;1.30;0.70;;;10.50;99.90;;;;;;5043643;28;20271;-77
2024/01/04 07:10:20;;;;;;;1.70;0.60;;;10.40;99.90;;;;;;5071027;28;20764;-77
2024/01/04 07:12:46;;;;;;;3.00;0.70;;;10.40;99.90;;;;;;5045363;28;20654;-78
2024/01/04 07:15:12;;;;;;;2.38;0.70;;;10.40;99.90;;;;;;5073424;28;20183;-78
2024/01/04 07:17:39;;;;;;;1.80;0.73;;;10.40;99.90;;;;;;5038902;28;20305;-78
2024/01/04 07:20:06;;;;;;;1.83;0.80;;;10.40;99.90;;;;;;5035955;28;20173;-78
2024/01/04 07:22:35;;;;;;;2.50;0.80;;;10.40;99.90;;;;;;5069145;28;20180;-78
2024/01/04 07:25:01;;;;;;;2.03;0.70;;;10.30;99.90;;;;;;5057885;28;20301;-78
2024/01/04 07:27:30;;;;;;;1.42;0.77;;;10.40;99.90;;;;;;5054972;28;20518;-78
2024/01/04 07:29:57;;;;;;;2.50;0.70;;;10.40;99.90;;;;;;5073130;28;20229;-78
2024/01/04 07:32:23;;;;;;;4.22;1.05;;;10.40;99.90;;;;;;5055642;28;20192;-78
2024/01/04 07:34:48;;;;;;;2.07;0.80;;;10.40;99.90;;;;;;5073477;28;20195;-78
2024/01/04 07:37:14;;;;;;;2.13;1.00;;;10.40;99.90;;;;;;5054728;28;20196;-79
2024/01/04 07:39:41;;;;;;;3.80;0.87;;;10.40;99.90;;;;;;5055203;28;20172;-78
2024/01/04 07:42:08;;;;;;;2.45;0.90;;;10.40;99.90;;;;;;5047010;28;20610;-79
2024/01/04 07:44:33;;;;;;;1.80;1.10;;;10.40;99.90;;;;;;5047064;28;20254;-78
2024/01/04 07:46:59;;;;;;;3.67;0.97;;;10.40;99.90;;;;;;5072475;28;20649;-78
2024/01/04 07:49:25;;;;;;;1.87;1.00;;;10.40;99.90;;;;;;5038518;28;20237;-78
2024/01/04 07:51:52;;;;;;;3.50;1.30;;;10.50;99.90;;;;;;5056129;28;20613;-79
2024/01/04 07:54:18;;;;;;;3.50;1.52;;;10.50;99.90;;;;;;5021829;28;20214;-79
2024/01/04 07:56:44;;;;;;;2.08;1.00;;;10.50;99.90;;;;;;5072276;28;20227;-79
2024/01/04 07:59:10;;;;;;;3.33;1.30;;;10.50;99.90;;;;;;5072556;28;20634;-78
2024/01/04 08:01:35;;;;;;;2.70;1.00;;;10.60;99.90;;;;;;5080065;28;20661;-79
2024/01/04 08:04:01;;;;;;;1.70;1.20;;;10.60;99.90;;;;;;5065389;28;20767;-79
2024/01/04 08:06:27;;;;;;;2.00;1.00;;;10.60;99.90;;;;;;5038171;28;20706;-79
2024/01/04 08:08:53;;;;;;;2.63;0.90;;;10.60;99.90;;;;;;5026583;28;20599;-80
2024/01/04 08:11:19;;;;;;;3.30;1.53;;;10.60;99.90;;;;;;5035072;28;20204;-80
2024/01/04 08:13:45;;;;;;;3.67;1.25;;;10.70;99.90;;;;;;5040653;28;20200;-80
2024/01/04 08:16:11;;;;;;;3.58;1.58;;;10.70;99.90;;;;;;5060777;28;20575;-80
2024/01/04 08:18:37;;;;;;;2.80;1.25;;;10.70;99.90;;;;;;5032810;28;20328;-81
2024/01/04 08:21:03;;;;;;;3.33;2.00;;;10.70;99.90;;;;;;5071117;28;20172;-81
2024/01/04 08:23:30;;;;;;;2.13;1.15;;;10.80;99.90;;;;;;5044025;28;20614;-80
2024/01/04 08:25:56;;;;;;;3.85;1.30;;;10.70;99.90;;;;;;5056537;28;20244;-80
2024/01/04 08:28:22;;;;;;;2.50;1.23;;;10.80;99.90;;;;;;5034002;28;20268;-81
2024/01/04 08:30:48;;;;;;;2.40;1.17;;;10.80;99.90;;;;;;5047542;28;20579;-82
2024/01/04 08:33:13;;;;;;;4.47;1.40;;;10.80;99.90;;;;;;5072710;28;21209;-81
2024/01/04 08:35:40;;;;;;;5.30;1.30;;;10.90;99.90;;;;;;5070356;28;21090;-80
2024/01/04 08:38:06;;;;;;;5.30;1.48;;;10.90;99.90;;;;;;5077409;28;20578;-82
2024/01/04 08:40:36;;;;;;;3.88;1.30;;;10.90;99.90;;;;;;5055007;28;20179;-82
2024/01/04 08:43:03;;;;;;;3.03;1.33;;;10.90;99.90;;;;;;5071837;28;20294;-83
2024/01/04 08:45:29;;;;;;;3.70;1.88;;;10.90;99.90;;;;;;5049578;28;20259;-82
2024/01/04 08:47:55;;;;;;;3.43;1.10;;;10.90;99.90;;;;;;5053146;28;20736;-82
2024/01/04 08:50:21;;;;;;;3.70;1.30;;;11.00;99.90;;;;;;5018383;28;20264;-83
2024/01/04 08:52:47;;;;;;;2.35;1.65;;;11.00;99.90;;;;;;5024940;28;20269;-82
2024/01/04 08:55:14;;;;;;;3.30;1.63;;;11.00;99.90;;;;;;5053579;28;20195;-81
2024/01/04 08:57:39;;;;;;;4.43;1.85;;;11.10;99.90;;;;;;5062721;28;20255;-80
2024/01/04 09:00:06;;;;;;;4.07;1.70;;;11.10;99.90;;;;;;5036307;28;20267;-80
2024/01/04 09:02:31;;;;;;;3.70;1.20;;;11.10;99.90;;;;;;5031856;28;20609;-81
2024/01/04 09:04:57;;;;;;;6.43;1.20;;;11.20;99.90;;;;;;5049998;28;20184;-84
2024/01/04 09:07:23;;;;;;;4.87;1.50;;;11.20;99.90;;;;;;5036261;28;20654;-82
2024/01/04 09:09:48;;;;;;;3.17;1.10;;;11.20;99.90;;;;;;5052964;28;20905;-82
2024/01/04 09:12:15;;;;;;;7.03;1.20;;;11.20;99.90;;;;;;5063936;28;20196;-81
2024/01/04 09:14:41;;;;;;;4.10;1.20;;;11.30;99.90;;;;;;5035058;28;20183;-81
2024/01/04 09:17:07;;;;;;;4.27;1.03;;;11.30;99.90;;;;;;5062301;28;20674;-82
2024/01/04 09:19:32;;;;;;;2.37;1.10;;;11.30;99.90;;;;;;5052691;28;20176;-76
2024/01/04 09:21:58;;;;;;;2.13;1.50;;;11.40;99.90;;;;;;5052891;28;20200;-76
2024/01/04 09:24:24;;;;;;;1.93;1.10;;;11.40;99.90;;;;;;5047836;28;20205;-76
2024/01/04 09:26:50;;;;;;;4.17;1.00;;;11.40;99.90;;;;;;5016692;28;20183;-76
2024/01/04 09:29:17;;;;;;;2.60;1.40;;;11.50;99.90;;;;;;5052751;28;21207;-76
2024/01/04 09:31:43;;;;;;;1.60;0.90;;;11.50;99.90;;;;;;5053008;28;20720;-76
2024/01/04 09:34:09;;;;;;;4.27;1.03;;;11.60;99.90;;;;;;5070732;28;20640;-76
2024/01/04 09:36:35;;;;;;;3.60;1.10;;;11.60;99.90;;;;;;5044991;28;20626;-75
2024/01/04 09:39:03;;;;;;;3.50;1.23;;;11.70;99.90;;;;;;5054084;28;20595;-76
2024/01/04 09:41:33;;;;;;;4.28;0.95;;;11.70;99.90;;;;;;5020166;28;20668;-75
2024/01/04 09:44:03;;;;;;;4.30;2.40;;;11.90;99.90;;;;;;5036071;28;20228;-75
2024/01/04 09:46:37;;;;;;;3.35;1.10;;;11.90;99.90;;;;;;5051947;28;20578;-75
2024/01/04 09:49:04;;;;;;;2.17;0.90;;;12.00;99.90;;;;;;5027440;28;20185;-75
2024/01/04 09:51:33;;;;;;;3.73;1.00;;;12.00;99.90;;;;;;5054544;28;20586;-81
2024/01/04 09:54:03;;;;;;;2.75;0.90;;;11.90;99.90;;;;;;5037226;28;20606;-80
2024/01/04 09:56:32;;;;;;;1.97;0.90;;;11.90;99.90;;;;;;5035635;28;20665;-79
2024/01/04 09:58:58;;;;;;;2.38;1.10;;;11.90;99.90;;;;;;5043995;28;20599;-82
2024/01/04 10:01:35;;;;;;;2.75;0.93;;;11.80;99.90;;;;;;5035911;28;20253;-82
2024/01/04 10:04:21;;;;;;;4.95;1.10;;;11.80;99.90;;;;;;5070347;28;20532;-80
2024/01/04 10:06:50;;;;;;;3.95;1.05;;;11.80;99.90;;;;;;5043858;28;20179;-80
2024/01/04 10:09:26;;;;;;;1.95;0.90;;;11.90;99.90;;;;;;5071290;28;20188;-79
2024/01/04 10:12:08;;;;;;;7.23;1.27;;;11.90;99.90;;;;;;5047652;28;20319;-80
2024/01/04 10:14:37;;;;;;;4.40;1.80;;;12.00;99.90;;;;;;5031664;28;20590;-80
2024/01/04 10:17:04;;;;;;;3.35;2.05;;;12.00;99.90;;;;;;5061310;28;20631;-80
2024/01/04 10:19:31;;;;;;;5.28;1.50;;;12.10;99.90;;;;;;5051649;28;20165;-79
2024/01/04 10:22:05;;;;;;;2.50;1.07;;;12.20;99.90;;;;;;5062733;28;20298;-80
2024/01/04 10:24:38;;;;;;;2.60;1.17;;;12.30;99.90;;;;;;5066220;28;20720;-78
2024/01/04 10:27:05;;;;;;;1.87;1.07;;;12.40;99.90;;;;;;5067814;28;21025;-80
2024/01/04 10:29:35;;;;;;;2.40;1.10;;;12.40;99.90;;;;;;5032148;28;20634;-77
2024/01/04 10:32:01;;;;;;;1.70;1.00;;;12.40;99.90;;;;;;5053011;28;20618;-74
2024/01/04 10:34:27;;;;;;;2.03;1.17;;;12.40;99.90;;;;;;5052755;28;20580;-74
2024/01/04 10:36:56;;;;;;;2.57;1.00;;;12.40;99.90;;;;;;5011598;28;20650;-75
2024/01/04 10:39:22;;;;;;;5.00;1.10;;;12.40;99.90;;;;;;5012092;28;20612;-74
2024/01/04 10:41:59;;;;;;;2.10;0.90;;;12.40;99.90;;;;;;5029807;28;20670;-74
2024/01/04 10:44:26;;;;;;;1.90;0.93;;;12.40;99.90;;;;;;5025342;28;20576;-75
2024/01/04 10:47:00;;;;;;;3.83;0.90;;;12.50;99.90;;;;;;5031340;28;20280;-75
2024/01/04 10:49:27;;;;;;;6.10;1.47;;;12.50;99.90;;;;;;5034313;28;20636;-75
2024/01/04 10:51:58;;;;;;;5.35;1.63;;;12.50;99.90;;;;;;5049681;28;20627;-75
2024/01/04 10:54:31;;;;;;;2.72;0.70;;;12.50;99.90;;;;;;5070240;28;20588;-74
2024/01/04 10:57:02;;;;;;;3.83;1.40;;;12.50;99.90;;;;;;5027145;28;20204;-77
2024/01/04 10:59:29;;;;;;;5.40;1.20;;;12.50;99.90;;;;;;5070076;28;20590;-76
2024/01/04 11:01:57;;;;;;;5.53;1.00;;;12.60;99.90;;;;;;5052121;28;20729;-77
2024/01/04 11:04:24;;;;;;;4.00;1.53;;;12.70;99.90;;;;;;5070215;28;20587;-77
2024/01/04 11:06:52;;;;;;;3.00;0.80;;;12.70;99.90;;;;;;5067857;28;20574;-77
2024/01/04 11:09:20;;;;;;;2.77;1.10;;;12.70;99.90;;;;;;5034974;28;20706;-77
2024/01/04 11:11:46;;;;;;;7.37;1.50;;;12.80;99.90;;;;;;5039599;28;20750;-75
2024/01/04 11:14:12;;;;;;;5.37;1.80;;;12.80;99.90;;;;;;5068294;28;20582;-76
2024/01/04 11:16:45;;;;;;;7.00;2.40;;;12.70;99.90;;;;;;5050791;28;20653;-75
2024/01/04 11:20:08;;;;;;;7.80;1.40;;;12.70;99.90;;;;;;5069201;28;20596;-75
2024/01/04 11:22:51;;;;;;;6.70;1.73;;;12.60;99.90;;;;;;4940103;28;20631;-75
2024/01/04 11:25:38;;;;;;;8.73;1.83;;;12.60;99.90;;;;;;5069041;28;20567;-76
2024/01/04 11:28:08;;;;;;;5.63;1.20;;;12.60;99.90;;;;;;5050844;28;20601;-76
2024/01/04 11:30:33;;;;;;;5.97;1.23;;;12.60;99.90;;;;;;5068745;28;20555;-76
2024/01/04 11:32:59;;;;;;;4.93;1.20;;;12.60;99.90;;;;;;5060531;28;20738;-76
2024/01/04 11:35:25;;;;;;;7.37;1.53;;;12.60;99.90;;;;;;5053508;28;20633;-76
2024/01/04 11:37:53;;;;;;;7.70;1.80;;;12.60;99.90;;;;;;5054262;28;20670;-79
2024/01/04 11:40:29;;;;;;;4.20;1.60;;;12.60;99.90;;;;;;5054142;28;20934;-78
2024/01/04 11:43:00;;;;;;;16.25;2.13;;;12.60;99.90;;;;;;5022073;28;20800;-78
2024/01/04 11:45:26;;;;;;;6.40;1.73;;;12.50;99.90;;;;;;5044336;28;20179;-80
2024/01/04 11:47:52;;;;;;;7.60;2.63;;;12.50;99.90;;;;;;5072184;28;20937;-79
2024/01/04 11:50:28;;;;;;;5.97;2.43;;;12.50;99.90;;;;;;5038068;28;20202;-79
2024/01/04 11:53:08;;;;;;;7.53;2.43;;;12.50;99.90;;;;;;5037851;28;21194;-79
2024/01/04 11:55:36;;;;;;;7.50;2.13;;;12.50;99.90;;;;;;5041966;28;20668;-79
2024/01/04 11:58:10;;;;;;;7.70;2.37;;;12.50;99.90;;;;;;5053781;28;20696;-75
2024/01/04 12:00:38;;;;;;;6.40;1.97;;;12.40;99.90;;;;;;5071968;28;20581;-75
2024/01/04 12:03:31;;;;;;;7.50;2.50;;;12.40;99.90;;;;;;5053802;28;20763;-73
2024/01/04 12:05:59;;;;;;;5.88;1.52;;;12.30;99.90;;;;;;5051423;28;21079;-74
2024/01/04 12:08:26;;;;;;;5.33;1.50;;;12.20;99.90;;;;;;5045879;28;20165;-74
2024/01/04 12:10:55;;;;;;;8.10;1.90;;;12.20;99.90;;;;;;5054118;28;20578;-74
2024/01/04 12:13:21;;;;;;;14.30;1.67;;;12.20;99.90;;;;;;5050447;28;20641;-75
2024/01/04 12:15:47;;;;;;;8.68;1.90;;;12.10;99.90;;;;;;5054113;28;20672;-75
2024/01/04 12:18:13;;;;;;;9.57;2.40;;;12.20;99.90;;;;;;5045344;28;20606;-75
2024/01/04 12:20:39;;;;;;;8.20;2.27;;;12.10;99.90;;;;;;5052835;28;20269;-75
2024/01/04 12:23:07;;;;;;;10.83;2.60;;;12.10;99.90;;;;;;5040015;28;20606;-74
2024/01/04 12:25:37;;;;;;;5.72;1.70;;;12.10;99.90;;;;;;5071847;28;20956;-74
2024/01/04 12:28:04;;;;;;;9.17;1.70;;;12.00;99.90;;;;;;5053243;28;20553;-80
2024/01/04 12:30:30;;;;;;;14.18;2.42;;;12.00;99.90;;;;;;5037242;28;20926;-75
2024/01/04 12:32:56;;;;;;;10.80;2.63;;;12.10;99.90;;;;;;5071240;28;20287;-75
2024/01/04 12:35:22;;;;;;;11.20;2.80;;;12.10;99.90;;;;;;5037099;28;21054;-79
2024/01/04 12:38:02;;;;;;;7.37;1.97;;;12.10;99.90;;;;;;5053887;28;20704;-79
2024/01/04 12:40:37;;;;;;;6.50;1.93;;;12.20;99.90;;;;;;5018703;28;20169;-79
2024/01/04 12:43:15;;;;;;;8.83;1.53;;;12.30;99.90;;;;;;5061141;28;20606;-81
2024/01/04 12:45:42;;;;;;;12.97;2.90;;;12.30;99.90;;;;;;5018897;28;20582;-79